Time;durP1;ratioP1;P1;durP2;ratioP2;P2;SDS_P1;SDS_P2;PMS_P1;PMS_P2;Temp;Humidity;BMP_temperature;BMP_pressure;BME280_temperature;BME280_humidity;BME280_pressure;Samples;Min_cycle;Max_cycle;Signal;HPM_P1;HPM_P2
2022/05/30 00:01:35;;;;;;;5.72;2.10;;;;;;;6.24;87.50;98119.13;4187880;28;20392;-71
2022/05/30 00:03:36;;;;;;;2.25;1.73;;;;;;;6.22;87.78;98126.13;4188029;28;20052;-71
2022/05/30 00:05:41;;;;;;;2.78;2.10;;;;;;;6.16;89.70;98112.66;4187611;28;20478;-71
2022/05/30 00:07:42;;;;;;;2.92;1.98;;;;;;;6.16;90.33;98112.66;4196517;28;20040;-71
2022/05/30 00:09:43;;;;;;;2.75;1.95;;;;;;;6.15;89.72;98115.78;4202232;28;20061;-71
2022/05/30 00:11:43;;;;;;;3.55;1.80;;;;;;;6.13;89.38;98123.59;4202620;27;20047;-71
2022/05/30 00:13:43;;;;;;;2.95;2.00;;;;;;;6.09;90.79;98107.00;4203679;27;20136;-71
2022/05/30 00:15:44;;;;;;;4.53;2.58;;;;;;;6.05;90.47;98113.59;4189709;27;20540;-71
2022/05/30 00:17:44;;;;;;;2.53;2.08;;;;;;;6.02;91.19;98111.53;4187336;28;20109;-71
2022/05/30 00:19:44;;;;;;;2.40;1.88;;;;;;;6.03;91.49;98116.66;4188118;28;20040;-71
2022/05/30 00:21:45;;;;;;;2.40;1.90;;;;;;;6.05;90.85;98110.84;4204129;27;20055;-71
2022/05/30 00:23:46;;;;;;;2.00;1.63;;;;;;;6.05;91.34;98106.16;4202137;27;20044;-71
2022/05/30 00:25:47;;;;;;;2.75;1.85;;;;;;;6.14;90.16;98114.19;4193444;27;20119;-71
2022/05/30 00:27:47;;;;;;;2.58;1.98;;;;;;;6.14;89.95;98101.25;4187990;28;20044;-71
2022/05/30 00:29:47;;;;;;;3.00;1.98;;;;;;;6.18;89.80;98109.56;4188427;28;20294;-71
2022/05/30 00:31:48;;;;;;;3.40;1.95;;;;;;;6.18;89.89;98110.34;4192661;27;20075;-71
2022/05/30 00:33:49;;;;;;;2.35;1.70;;;;;;;6.18;88.69;98104.06;4193110;27;20557;-71
2022/05/30 00:35:49;;;;;;;3.03;1.73;;;;;;;6.18;88.17;98101.31;4188001;28;20044;-71
2022/05/30 00:37:49;;;;;;;2.30;1.90;;;;;;;6.24;87.88;98101.84;4193677;28;20415;-71
2022/05/30 00:39:50;;;;;;;2.65;2.08;;;;;;;6.27;87.33;98109.34;4199358;27;20516;-71
2022/05/30 00:41:50;;;;;;;2.10;1.90;;;;;;;6.25;87.93;98101.47;4188018;28;20048;-71
2022/05/30 00:43:50;;;;;;;3.85;2.10;;;;;;;6.26;86.90;98096.78;4187422;28;20476;-71
2022/05/30 00:45:52;;;;;;;3.45;1.95;;;;;;;6.25;87.73;98101.47;4187338;28;20041;-71
2022/05/30 00:47:52;;;;;;;3.35;1.92;;;;;;;6.25;87.44;98092.44;4193065;28;20128;-71
2022/05/30 00:49:55;;;;;;;2.85;2.05;;;;;;;6.26;87.61;98091.28;4195706;27;20044;-71
2022/05/30 00:51:56;;;;;;;2.90;2.10;;;;;;;6.27;86.92;98095.63;4186959;28;20108;-71
2022/05/30 00:53:58;;;;;;;2.10;1.90;;;;;;;6.26;86.69;98085.78;4187306;28;20105;-71
2022/05/30 00:56:00;;;;;;;3.55;1.95;;;;;;;6.24;86.51;98091.66;4198441;28;20043;-71
2022/05/30 00:58:02;;;;;;;3.15;2.22;;;;;;;6.17;87.11;98094.22;4202201;27;20036;-72
2022/05/30 01:00:11;;;;;;;2.70;2.20;;;;;;;6.10;88.66;98091.31;4201656;27;20040;-72
2022/05/30 01:02:12;;;;;;;2.50;1.90;;;;;;;6.04;89.01;98090.81;4201611;27;20047;-71
2022/05/30 01:06:35;;;;;;;2.35;1.90;;;;;;;5.93;90.75;98092.50;4187577;27;20110;-71
2022/05/30 01:08:35;;;;;;;3.53;2.17;;;;;;;5.90;91.05;98088.53;4186171;28;20041;-71
2022/05/30 01:10:36;;;;;;;2.28;2.03;;;;;;;5.87;91.32;98094.69;4191119;28;20139;-71
2022/05/30 01:12:42;;;;;;;3.05;1.90;;;;;;;5.86;91.59;98084.84;4190407;28;20052;-71
2022/05/30 01:14:44;;;;;;;3.58;1.85;;;;;;;5.89;91.70;98091.59;4185802;28;20037;-71
2022/05/30 01:16:44;;;;;;;2.83;2.45;;;;;;;5.87;91.33;98083.69;4187124;28;20607;-71
2022/05/30 01:18:53;;;;;;;2.92;2.28;;;;;;;5.89;91.41;98086.91;4186265;28;20116;-71
2022/05/30 01:21:05;;;;;;;3.63;2.47;;;;;;;5.95;90.94;98092.94;4187105;28;20120;-71
2022/05/30 01:23:11;;;;;;;5.35;2.35;;;;;;;6.00;90.60;98098.16;4186671;28;20040;-71
2022/05/30 01:25:20;;;;;;;5.35;2.22;;;;;;;5.94;92.24;98088.59;4186701;28;20155;-71
2022/05/30 01:27:29;;;;;;;2.80;2.10;;;;;;;5.94;93.28;98093.28;4186541;28;20450;-71
2022/05/30 01:29:53;;;;;;;3.70;2.00;;;;;;;5.96;93.87;98093.72;4185547;28;20392;-72
2022/05/30 01:31:55;;;;;;;4.47;2.38;;;;;;;5.95;92.92;98087.44;4186529;28;20048;-71
2022/05/30 01:33:55;;;;;;;3.10;2.28;;;;;;;5.99;92.67;98088.34;4186870;28;20048;-71
2022/05/30 01:35:56;;;;;;;4.05;2.05;;;;;;;6.04;92.12;98090.81;4196543;28;20040;-71
2022/05/30 01:37:57;;;;;;;2.53;2.10;;;;;;;6.08;91.81;98088.94;4187888;28;20068;-71
2022/05/30 01:39:58;;;;;;;3.53;2.38;;;;;;;6.14;90.49;98084.75;4201689;27;20052;-71
2022/05/30 01:41:58;;;;;;;2.83;2.05;;;;;;;6.23;90.05;98086.50;4201111;27;20092;-71
2022/05/30 01:43:58;;;;;;;2.25;2.00;;;;;;;6.24;91.65;98086.16;4190628;27;20465;-71
2022/05/30 01:46:12;;;;;;;3.88;2.22;;;;;;;6.23;93.04;98081.81;4186021;28;20053;-71
2022/05/30 01:48:12;;;;;;;2.90;2.13;;;;;;;6.24;93.22;98091.66;4186350;28;20044;-71
2022/05/30 01:50:13;;;;;;;4.30;2.25;;;;;;;6.20;93.21;98077.81;4185100;28;20529;-72
2022/05/30 01:52:13;;;;;;;5.03;2.25;;;;;;;6.24;92.90;98085.34;4190983;28;20028;-72
2022/05/30 01:54:14;;;;;;;4.35;2.13;;;;;;;6.24;93.02;98086.16;4193327;28;20032;-71
2022/05/30 01:56:14;;;;;;;3.63;1.77;;;;;;;6.23;92.20;98092.81;4186236;28;20029;-71
2022/05/30 01:58:14;;;;;;;3.13;2.28;;;;;;;6.25;92.13;98086.94;4191793;27;20107;-72
2022/05/30 02:00:15;;;;;;;2.70;2.17;;;;;;;6.28;91.91;98084.25;4200348;28;20032;-71
2022/05/30 02:02:15;;;;;;;2.03;1.83;;;;;;;6.26;91.99;98083.84;4202411;27;20039;-71
2022/05/30 02:04:16;;;;;;;4.15;2.45;;;;;;;6.26;91.98;98088.53;4200952;27;20032;-72
2022/05/30 02:06:17;;;;;;;3.95;1.88;;;;;;;6.16;92.28;98082.44;4200895;27;20028;-71
2022/05/30 02:08:21;;;;;;;2.78;2.10;;;;;;;6.20;92.44;98080.56;4201324;27;20028;-71
2022/05/30 02:10:21;;;;;;;3.33;2.10;;;;;;;6.24;92.20;98082.63;4201185;27;20155;-72
2022/05/30 02:12:21;;;;;;;4.10;2.00;;;;;;;6.27;90.99;98079.94;4201752;27;20492;-71
2022/05/30 02:14:22;;;;;;;3.13;2.10;;;;;;;6.34;90.24;98082.84;4200999;27;20040;-71
2022/05/30 02:18:41;;;;;;;3.95;2.30;;;;;;;6.34;91.66;98085.59;4201025;27;20089;-71
2022/05/30 02:20:45;;;;;;;4.30;2.22;;;;;;;6.33;92.26;98083.19;4201419;27;20131;-71
2022/05/30 02:22:45;;;;;;;3.97;2.00;;;;;;;6.35;91.87;98086.38;4185033;28;20205;-71
2022/05/30 02:24:48;;;;;;;2.85;1.90;;;;;;;6.36;91.16;98088.75;4197629;27;20090;-71
2022/05/30 02:26:48;;;;;;;3.28;2.20;;;;;;;6.38;91.77;98085.69;4198828;27;20488;-71
2022/05/30 02:28:49;;;;;;;3.45;1.88;;;;;;;6.42;91.04;98086.53;4185317;28;20038;-71
2022/05/30 02:30:50;;;;;;;4.68;2.30;;;;;;;6.48;89.03;98087.84;4185664;28;20037;-71
2022/05/30 02:36:38;;;;;;;2.88;1.95;;;;;;;6.47;90.43;98078.81;4189980;28;20052;-71
2022/05/30 02:37:29;;;;;;;4.00;2.22;;;;;;;6.45;92.38;98092.13;4185431;28;20048;-71
2022/05/30 02:39:30;;;;;;;4.53;2.58;;;;;;;6.39;92.70;98090.00;4196375;27;20048;-71
2022/05/30 02:41:31;;;;;;;2.95;2.22;;;;;;;6.41;93.06;98087.69;4200179;27;20145;-71
2022/05/30 02:43:31;;;;;;;4.22;2.20;;;;;;;6.38;93.33;98088.44;4186247;28;20029;-71
2022/05/30 02:45:31;;;;;;;3.83;2.15;;;;;;;6.27;93.62;98088.19;4185873;28;20333;-71
2022/05/30 02:47:32;;;;;;;4.20;2.10;;;;;;;6.25;93.99;98086.94;4185448;28;20059;-71
2022/05/30 02:49:32;;;;;;;4.10;2.40;;;;;;;6.27;94.76;98099.16;4185338;28;20068;-71
2022/05/30 02:51:33;;;;;;;4.10;2.40;;;;;;;6.24;94.84;98094.41;4185273;28;20040;-71
2022/05/30 02:53:33;;;;;;;4.43;2.40;;;;;;;6.23;94.73;98101.03;4194066;28;20043;-71
2022/05/30 02:55:33;;;;;;;3.03;2.20;;;;;;;6.23;95.75;98092.00;4200957;27;20036;-71
2022/05/30 02:57:34;;;;;;;2.55;1.80;;;;;;;6.24;95.12;98094.41;4200907;27;20492;-71
2022/05/30 02:59:34;;;;;;;4.05;2.13;;;;;;;6.25;95.96;98095.19;4193820;27;20049;-71
2022/05/30 03:01:34;;;;;;;4.55;2.30;;;;;;;6.32;95.17;98100.84;4185490;28;20131;-71
2022/05/30 03:03:35;;;;;;;3.30;1.80;;;;;;;6.33;94.36;98091.44;4185836;28;20054;-71
2022/05/30 03:05:37;;;;;;;4.68;2.22;;;;;;;6.35;94.48;98098.16;4185341;28;20670;-71
2022/05/30 03:07:37;;;;;;;2.43;2.00;;;;;;;6.36;93.57;98098.97;4185905;28;20045;-71
2022/05/30 03:09:37;;;;;;;3.22;2.38;;;;;;;6.33;93.93;98086.75;4185041;28;20275;-71
2022/05/30 03:11:38;;;;;;;2.88;2.20;;;;;;;6.36;94.32;98101.72;4185585;28;20075;-71
2022/05/30 03:13:38;;;;;;;5.72;2.65;;;;;;;6.36;94.72;98101.72;4186034;28;20122;-71
2022/05/30 03:15:39;;;;;;;4.18;2.10;;;;;;;6.36;94.39;98098.97;4185743;28;20044;-71
2022/05/30 03:17:39;;;;;;;3.83;2.20;;;;;;;6.39;94.42;98098.25;4185471;28;20040;-71
2022/05/30 03:19:39;;;;;;;3.55;2.38;;;;;;;6.37;94.49;98093.13;4184864;28;20631;-71
2022/05/30 03:21:39;;;;;;;3.42;2.20;;;;;;;6.44;94.38;98097.97;4192012;27;20377;-71
2022/05/30 03:23:40;;;;;;;3.38;2.10;;;;;;;6.42;93.61;98092.81;4194548;28;20359;-71
2022/05/30 03:25:40;;;;;;;4.97;2.40;;;;;;;6.44;93.37;98092.47;4200623;27;20051;-71
2022/05/30 03:27:41;;;;;;;6.70;2.40;;;;;;;6.50;92.15;98102.03;4199917;27;20078;-71
2022/05/30 03:29:41;;;;;;;2.95;1.88;;;;;;;6.54;92.16;98097.41;4199600;27;20036;-71
2022/05/30 03:31:42;;;;;;;6.55;2.60;;;;;;;6.58;92.18;98100.22;4191965;27;20044;-71
2022/05/30 03:33:42;;;;;;;6.55;2.40;;;;;;;6.59;93.02;98105.34;4192693;28;20047;-71
2022/05/30 03:35:43;;;;;;;3.95;2.33;;;;;;;6.64;93.71;98102.34;4199675;27;20052;-71
2022/05/30 03:37:44;;;;;;;2.42;2.20;;;;;;;6.66;92.90;98105.50;4201174;27;20040;-71
2022/05/30 03:39:44;;;;;;;4.57;2.58;;;;;;;6.60;93.21;98106.94;4193868;27;20056;-71
2022/05/30 03:41:45;;;;;;;3.25;2.33;;;;;;;6.56;93.69;98097.03;4190457;28;20048;-71
2022/05/30 03:43:46;;;;;;;4.30;2.22;;;;;;;6.55;94.46;98103.69;4185104;28;20049;-71
2022/05/30 03:45:46;;;;;;;5.78;2.78;;;;;;;6.58;94.13;98105.72;4185322;28;20288;-71
2022/05/30 03:47:47;;;;;;;5.57;2.47;;;;;;;6.60;93.77;98109.69;4185207;28;20755;-71
2022/05/30 03:49:48;;;;;;;4.10;2.40;;;;;;;6.63;93.47;98114.50;4184064;28;20044;-71
2022/05/30 03:51:50;;;;;;;2.63;2.17;;;;;;;6.61;93.86;98105.00;4184959;28;20465;-71
2022/05/30 03:53:51;;;;;;;3.05;2.25;;;;;;;6.57;93.90;98102.19;4194187;28;20047;-71
2022/05/30 03:55:52;;;;;;;3.40;2.38;;;;;;;6.55;94.89;98104.50;4203381;27;20373;-71
2022/05/30 03:57:52;;;;;;;3.20;2.38;;;;;;;6.58;95.04;98103.78;4203707;27;20040;-71
2022/05/30 03:59:52;;;;;;;5.72;2.53;;;;;;;6.59;94.56;98112.81;4202488;27;20480;-71
2022/05/30 04:01:52;;;;;;;4.68;2.00;;;;;;;6.62;94.69;98104.66;4193115;27;20429;-71
2022/05/30 04:03:53;;;;;;;2.58;2.10;;;;;;;6.59;95.88;98097.09;4187847;28;20677;-71
2022/05/30 04:05:53;;;;;;;4.82;2.65;;;;;;;6.57;96.32;98093.94;4188185;28;20136;-71
2022/05/30 04:07:54;;;;;;;4.88;2.60;;;;;;;6.64;96.09;98102.34;4188111;28;20032;-71
2022/05/30 04:09:54;;;;;;;2.88;2.30;;;;;;;6.65;96.69;98094.88;4186970;28;20084;-71
2022/05/30 04:11:55;;;;;;;7.13;2.30;;;;;;;6.70;95.85;98102.81;4190895;28;20032;-71
2022/05/30 04:13:55;;;;;;;4.78;2.53;;;;;;;6.71;95.98;98099.72;4188245;28;20143;-71
2022/05/30 04:15:56;;;;;;;3.55;2.28;;;;;;;6.75;95.21;98102.53;4187937;28;20041;-71
2022/05/30 04:17:56;;;;;;;3.65;2.15;;;;;;;6.82;95.85;98110.16;4202040;28;20036;-71
2022/05/30 04:19:56;;;;;;;7.35;2.85;;;;;;;6.82;96.72;98104.66;4202890;27;20238;-71
2022/05/30 04:21:57;;;;;;;3.28;2.40;;;;;;;6.87;96.55;98120.84;4202808;27;20246;-71
2022/05/30 04:23:57;;;;;;;5.40;2.50;;;;;;;6.88;96.61;98111.47;4200268;27;20508;-71
2022/05/30 04:25:57;;;;;;;4.57;3.03;;;;;;;6.92;96.43;98112.31;4191373;27;20118;-71
2022/05/30 04:27:58;;;;;;;4.63;3.03;;;;;;;6.96;96.26;98116.72;4191937;27;20113;-71
2022/05/30 04:29:59;;;;;;;6.70;3.67;;;;;;;7.00;96.88;98101.09;4186538;28;20098;-71
2022/05/30 04:31:59;;;;;;;3.28;2.78;;;;;;;7.07;95.33;98113.38;4192303;28;20052;-71
2022/05/30 04:34:00;;;;;;;4.78;3.17;;;;;;;7.16;96.62;98108.44;4187660;28;20138;-71
2022/05/30 04:36:04;;;;;;;5.20;3.28;;;;;;;7.22;96.82;98113.31;4188454;28;20044;-71
2022/05/30 04:38:04;;;;;;;4.72;4.20;;;;;;;7.24;96.34;98116.47;4187169;28;20032;-71
2022/05/30 04:40:05;;;;;;;5.45;3.35;;;;;;;7.29;95.76;98115.41;4185420;28;20033;-71
2022/05/30 04:42:06;;;;;;;8.00;4.10;;;;;;;7.24;95.93;98115.69;4186104;28;20438;-71
2022/05/30 04:44:06;;;;;;;5.10;3.65;;;;;;;7.24;95.97;98115.69;4185805;28;20071;-71
2022/05/30 04:46:15;;;;;;;6.68;3.90;;;;;;;7.29;95.19;98113.44;4189271;28;20032;-71
2022/05/30 04:48:16;;;;;;;3.50;2.53;;;;;;;7.30;95.72;98116.97;4188476;27;20249;-72
2022/05/30 04:50:17;;;;;;;5.25;3.05;;;;;;;7.39;94.99;98120.28;4189161;28;20020;-71
2022/05/30 04:52:18;;;;;;;4.68;3.70;;;;;;;7.50;94.52;98113.00;4194405;28;20029;-71
2022/05/30 04:54:19;;;;;;;6.10;2.70;;;;;;;7.62;93.22;98116.75;4187307;28;20055;-71
2022/05/30 04:56:21;;;;;;;3.53;2.65;;;;;;;7.64;93.22;98117.97;4125724;28;20865;-71
2022/05/30 04:58:21;;;;;;;4.90;2.80;;;;;;;7.55;93.01;98117.44;4193475;28;20590;-71
2022/05/30 05:00:25;;;;;;;4.43;3.08;;;;;;;7.45;93.65;98112.53;4188259;28;20184;-71
2022/05/30 05:02:25;;;;;;;3.92;2.80;;;;;;;7.53;93.35;98117.81;4187958;28;20040;-71
2022/05/30 05:04:25;;;;;;;5.82;2.60;;;;;;;7.57;93.34;98115.09;4186818;28;20410;-71
2022/05/30 05:06:26;;;;;;;4.53;2.60;;;;;;;7.66;93.11;98121.16;4185848;28;20531;-71
2022/05/30 05:08:32;;;;;;;4.20;3.03;;;;;;;7.71;92.85;98115.34;4185457;28;20045;-71
2022/05/30 05:10:44;;;;;;;5.63;3.20;;;;;;;7.77;92.43;98121.31;4186803;28;20044;-71
2022/05/30 05:12:44;;;;;;;7.68;2.83;;;;;;;7.88;92.33;98114.06;4186611;28;20212;-71
2022/05/30 05:14:44;;;;;;;4.45;3.00;;;;;;;8.05;91.52;98115.50;4187347;28;20102;-71
2022/05/30 05:16:45;;;;;;;3.72;3.00;;;;;;;8.05;91.03;98115.50;4187382;28;20128;-71
2022/05/30 05:18:46;;;;;;;5.63;3.10;;;;;;;8.18;90.65;98122.38;4186808;28;20478;-71
2022/05/30 05:20:46;;;;;;;4.45;2.95;;;;;;;8.26;90.34;98115.81;4187222;28;20048;-72
2022/05/30 05:22:47;;;;;;;4.20;3.22;;;;;;;8.37;90.80;98127.03;4195265;28;20044;-71
2022/05/30 05:24:47;;;;;;;3.97;3.00;;;;;;;8.49;88.34;98135.06;4187382;28;20446;-71
2022/05/30 05:26:48;;;;;;;4.65;2.97;;;;;;;8.53;87.82;98130.41;4187296;28;20036;-71
2022/05/30 05:28:49;;;;;;;6.72;3.28;;;;;;;8.63;88.13;98128.97;4186127;28;20071;-71
2022/05/30 05:30:50;;;;;;;4.53;3.38;;;;;;;8.70;87.75;98140.09;4186913;28;20040;-71
2022/05/30 05:32:51;;;;;;;7.93;3.15;;;;;;;8.78;87.13;98139.03;4187176;28;20527;-71
2022/05/30 05:34:51;;;;;;;6.32;3.72;;;;;;;8.77;86.37;98136.63;4189591;28;20119;-71
2022/05/30 05:36:52;;;;;;;7.60;2.88;;;;;;;8.75;85.92;98134.25;4189417;28;20047;-71
2022/05/30 05:38:53;;;;;;;4.65;3.00;;;;;;;8.73;86.83;98123.59;4201599;27;20051;-71
2022/05/30 05:40:53;;;;;;;5.88;2.95;;;;;;;8.77;87.51;98126.41;4201765;27;20148;-71
2022/05/30 05:42:54;;;;;;;3.90;3.10;;;;;;;8.72;85.67;98119.25;4191814;28;20087;-71
2022/05/30 05:44:54;;;;;;;10.18;3.88;;;;;;;8.74;84.68;98138.19;4188668;27;20029;-71
2022/05/30 05:46:57;;;;;;;6.38;3.47;;;;;;;8.73;84.30;98133.84;4191310;28;20389;-71
2022/05/30 05:48:59;;;;;;;5.38;3.05;;;;;;;8.71;84.33;98130.66;4186421;28;20431;-71
2022/05/30 05:51:03;;;;;;;7.53;3.42;;;;;;;8.79;84.82;98135.09;4186895;28;20101;-71
2022/05/30 05:53:04;;;;;;;7.47;3.70;;;;;;;8.80;83.93;98136.69;4187426;28;20366;-71
2022/05/30 05:55:05;;;;;;;6.40;3.67;;;;;;;8.85;83.74;98146.59;4188687;28;20044;-71
2022/05/30 05:57:05;;;;;;;6.88;3.10;;;;;;;8.88;83.98;98149.41;4188986;28;20382;-71
2022/05/30 05:59:06;;;;;;;7.28;3.50;;;;;;;8.85;83.52;98136.34;4200238;27;20070;-71
2022/05/30 06:01:07;;;;;;;6.28;3.20;;;;;;;8.78;84.27;98143.75;4201952;27;20131;-71
2022/05/30 06:03:08;;;;;;;4.20;3.30;;;;;;;8.87;84.10;98149.78;4189384;28;20045;-71
2022/05/30 06:05:10;;;;;;;5.80;3.22;;;;;;;8.90;83.73;98144.28;4185708;28;20102;-71
2022/05/30 06:07:11;;;;;;;4.35;3.10;;;;;;;8.92;84.46;98149.44;4186708;28;20194;-71
2022/05/30 06:09:12;;;;;;;9.43;3.83;;;;;;;8.92;84.58;98149.44;4187673;28;20044;-71
2022/05/30 06:11:12;;;;;;;7.53;3.95;;;;;;;8.90;83.64;98154.53;4187944;28;20440;-71
2022/05/30 06:13:13;;;;;;;5.55;3.40;;;;;;;8.93;83.34;98160.09;4187817;28;20053;-71
2022/05/30 06:15:16;;;;;;;7.70;3.80;;;;;;;8.90;83.31;98158.09;4186240;28;20080;-71
2022/05/30 06:17:16;;;;;;;7.43;4.05;;;;;;;9.05;84.17;98163.81;4198162;27;20555;-71
2022/05/30 06:19:17;;;;;;;5.28;3.53;;;;;;;9.15;83.98;98160.38;4190274;28;20071;-71
2022/05/30 06:21:17;;;;;;;5.43;3.25;;;;;;;9.16;82.84;98157.22;4186580;28;20131;-71
2022/05/30 06:23:18;;;;;;;6.05;3.30;;;;;;;9.28;82.67;98161.72;4186147;28;20310;-71
2022/05/30 06:25:18;;;;;;;7.70;3.80;;;;;;;9.38;82.35;98158.28;4186418;28;20048;-71
2022/05/30 06:27:20;;;;;;;6.15;3.20;;;;;;;9.37;81.98;98164.19;4186066;28;20055;-71
2022/05/30 06:29:20;;;;;;;11.00;4.97;;;;;;;9.29;82.17;98164.09;4185281;28;20357;-71
2022/05/30 06:31:26;;;;;;;6.30;3.40;;;;;;;9.36;81.67;98171.66;4186303;28;20048;-71
2022/05/30 06:33:26;;;;;;;6.07;3.70;;;;;;;9.38;82.79;98165.75;4186761;28;20655;-71
2022/05/30 06:35:26;;;;;;;4.55;3.33;;;;;;;9.46;82.94;98168.22;4186194;28;20080;-71
2022/05/30 06:37:27;;;;;;;7.72;3.95;;;;;;;9.57;82.22;98174.66;4184973;28;20311;-71
2022/05/30 06:39:27;;;;;;;6.15;3.08;;;;;;;9.67;81.72;98167.63;4188412;28;20289;-71
2022/05/30 06:41:31;;;;;;;3.83;3.33;;;;;;;9.75;81.67;98165.75;4186054;28;20045;-71
2022/05/30 06:43:31;;;;;;;5.75;4.03;;;;;;;9.77;81.89;98169.75;4186800;28;20040;-71
2022/05/30 06:45:33;;;;;;;8.77;3.72;;;;;;;9.84;80.84;98172.53;4185527;28;20097;-71
2022/05/30 06:47:33;;;;;;;6.47;3.20;;;;;;;9.87;80.15;98176.53;4188193;28;20052;-71
2022/05/30 06:49:35;;;;;;;5.80;3.60;;;;;;;10.03;80.60;98174.31;4185212;28;20217;-71
2022/05/30 06:51:36;;;;;;;6.50;3.38;;;;;;;9.81;79.96;98170.53;4185135;28;20076;-71
2022/05/30 06:53:38;;;;;;;5.60;3.45;;;;;;;10.06;79.73;98169.97;4190976;27;20488;-71
2022/05/30 06:55:38;;;;;;;4.93;3.15;;;;;;;10.35;79.76;98169.06;4191467;27;20052;-71
2022/05/30 06:59:57;;;;;;;8.02;4.40;;;;;;;10.55;76.04;98179.88;4185252;28;20047;-71
2022/05/30 07:02:02;;;;;;;6.30;2.78;;;;;;;10.45;76.45;98180.59;4186539;28;20040;-71
2022/05/30 07:04:03;;;;;;;7.50;3.67;;;;;;;10.42;76.47;98182.13;4185083;28;20048;-72
2022/05/30 07:06:08;;;;;;;3.53;2.83;;;;;;;10.45;77.49;98188.88;4185946;28;20025;-72
2022/05/30 07:08:09;;;;;;;7.50;3.13;;;;;;;10.42;76.16;98187.66;4185767;28;20032;-72
2022/05/30 07:10:11;;;;;;;6.45;3.40;;;;;;;10.36;75.65;98194.75;4185356;28;20204;-71
2022/05/30 07:12:11;;;;;;;5.15;2.85;;;;;;;10.32;76.31;98199.44;4195283;28;20108;-72
2022/05/30 07:14:12;;;;;;;6.80;3.67;;;;;;;10.18;76.09;98193.75;4200449;27;20035;-71
2022/05/30 07:16:13;;;;;;;7.25;3.63;;;;;;;10.11;76.09;98191.75;4200826;27;20565;-71
2022/05/30 07:18:17;;;;;;;4.95;3.25;;;;;;;10.17;76.58;98192.19;4201563;27;20048;-71
2022/05/30 07:20:18;;;;;;;4.50;3.03;;;;;;;10.25;76.54;98193.84;4194504;28;20400;-71
2022/05/30 07:22:18;;;;;;;6.75;3.13;;;;;;;10.25;75.89;98191.09;4188937;28;20040;-71
2022/05/30 07:24:18;;;;;;;5.63;3.10;;;;;;;10.28;75.41;98193.09;4201841;27;20031;-71
2022/05/30 07:26:20;;;;;;;18.02;3.78;;;;;;;10.22;74.12;98191.84;4199713;27;20377;-71
2022/05/30 07:28:21;;;;;;;4.05;2.80;;;;;;;10.25;73.81;98188.31;4200859;27;20044;-71
2022/05/30 07:30:21;;;;;;;6.38;3.08;;;;;;;10.30;74.18;98191.53;4203867;27;20059;-71
2022/05/30 07:32:22;;;;;;;3.97;2.90;;;;;;;10.50;75.29;98194.03;4203602;27;20452;-71
2022/05/30 07:34:22;;;;;;;6.07;3.03;;;;;;;10.50;72.55;98185.75;4198071;28;20040;-71
2022/05/30 07:36:28;;;;;;;3.92;2.55;;;;;;;10.70;70.97;98187.09;4189053;28;20629;-71
2022/05/30 07:38:29;;;;;;;6.00;2.65;;;;;;;10.82;70.36;98189.50;4188184;28;20065;-71
2022/05/30 07:40:29;;;;;;;6.13;2.60;;;;;;;11.03;69.91;98188.06;4188480;28;20127;-71
2022/05/30 07:42:29;;;;;;;5.82;2.55;;;;;;;11.18;69.11;98182.19;4188668;28;20045;-71
2022/05/30 07:44:30;;;;;;;2.47;2.00;;;;;;;11.27;67.29;98178.28;4188366;28;20047;-71
2022/05/30 07:46:30;;;;;;;3.00;1.55;;;;;;;11.21;63.65;98184.19;4188613;28;20413;-71
2022/05/30 07:48:30;;;;;;;3.78;2.00;;;;;;;11.35;65.37;98182.66;4187881;28;20705;-71
2022/05/30 07:50:31;;;;;;;4.28;2.20;;;;;;;11.44;66.17;98183.09;4188478;28;20045;-71
2022/05/30 07:52:32;;;;;;;2.97;2.30;;;;;;;11.44;67.18;98183.88;4188700;28;20044;-71
2022/05/30 07:54:34;;;;;;;5.07;2.20;;;;;;;11.45;68.76;98184.66;4188469;28;20123;-71
2022/05/30 07:56:36;;;;;;;5.05;2.00;;;;;;;11.24;65.32;98180.63;4189985;28;20079;-71
2022/05/30 07:58:36;;;;;;;4.70;2.42;;;;;;;10.95;65.10;98190.78;4187559;28;20565;-71
2022/05/30 08:00:37;;;;;;;4.20;2.30;;;;;;;10.75;66.26;98183.94;4188628;28;20060;-71
2022/05/30 08:02:41;;;;;;;3.50;2.33;;;;;;;10.69;66.92;98197.38;4188673;28;20065;-71
2022/05/30 08:04:42;;;;;;;3.63;2.78;;;;;;;10.71;68.52;98190.66;4188408;28;20053;-71
2022/05/30 08:06:43;;;;;;;3.15;2.17;;;;;;;10.72;68.62;98181.16;4189961;28;20106;-71
2022/05/30 08:08:44;;;;;;;3.38;2.30;;;;;;;10.79;69.59;98187.53;4187934;28;20471;-71
2022/05/30 08:10:44;;;;;;;2.85;2.08;;;;;;;10.85;66.43;98187.97;4191439;27;20187;-71
2022/05/30 08:12:46;;;;;;;4.35;2.38;;;;;;;10.76;67.28;98193.84;4189629;28;20444;-71
2022/05/30 08:14:47;;;;;;;3.90;2.97;;;;;;;10.72;69.13;98195.78;4203769;27;20397;-71
2022/05/30 08:16:47;;;;;;;4.75;2.22;;;;;;;10.83;68.83;98202.16;4203078;27;20141;-71
2022/05/30 08:18:47;;;;;;;3.30;2.72;;;;;;;10.76;70.63;98195.78;4193471;28;20087;-71
2022/05/30 08:20:48;;;;;;;2.90;2.60;;;;;;;10.79;70.54;98203.34;4188303;28;20246;-71
2022/05/30 08:22:49;;;;;;;3.53;2.45;;;;;;;10.84;69.99;98189.13;4200749;27;20214;-71
2022/05/30 08:24:52;;;;;;;3.38;2.13;;;;;;;10.93;69.01;98206.22;4187784;28;20127;-71
2022/05/30 08:26:52;;;;;;;4.78;2.63;;;;;;;10.90;67.72;98198.66;4195418;27;20075;-71
2022/05/30 08:28:52;;;;;;;3.72;2.40;;;;;;;10.79;68.88;98197.81;4195202;27;20075;-71
2022/05/30 08:30:53;;;;;;;4.63;2.78;;;;;;;10.83;69.08;98198.63;4203493;28;20400;-71
2022/05/30 08:32:53;;;;;;;5.50;2.47;;;;;;;10.80;69.46;98200.19;4204018;27;20127;-71
2022/05/30 08:34:54;;;;;;;4.30;2.05;;;;;;;10.65;69.66;98204.81;4191637;28;20419;-71
2022/05/30 08:36:54;;;;;;;4.18;2.78;;;;;;;10.79;67.71;98208.88;4187943;28;20063;-71
2022/05/30 08:41:46;;;;;;;5.18;2.03;;;;;;;10.72;67.89;98209.63;4188891;28;20052;-71
2022/05/30 08:43:37;;;;;;;3.47;1.95;;;;;;;10.86;66.86;98211.69;4199497;27;20417;-71
2022/05/30 08:45:38;;;;;;;4.72;2.80;;;;;;;10.94;67.50;98211.34;4191311;27;20045;-71
2022/05/30 08:47:55;;;;;;;5.50;2.22;;;;;;;10.94;67.94;98208.59;4201410;27;20500;-71
2022/05/30 08:50:14;;;;;;;12.60;6.72;;;;;;;10.84;68.10;98209.31;4202529;27;20048;-71
2022/05/30 08:52:25;;;;;;;9.65;4.88;;;;;;;10.69;68.23;98215.94;4191168;27;20135;-71
2022/05/30 08:54:59;;;;;;;2.67;2.17;;;;;;;10.97;67.88;98210.56;4187369;28;20618;-71
2022/05/30 08:57:02;;;;;;;3.67;2.50;;;;;;;11.27;67.62;98201.22;4187591;28;20045;-71
2022/05/30 08:59:44;;;;;;;4.93;2.28;;;;;;;11.37;67.98;98219.88;4187231;28;20048;-71
2022/05/30 09:01:50;;;;;;;4.18;2.30;;;;;;;11.30;68.08;98219.81;4188375;28;20056;-71
2022/05/30 09:04:09;;;;;;;2.92;2.22;;;;;;;11.33;67.97;98216.25;4189706;28;20056;-71
2022/05/30 09:06:22;;;;;;;4.82;2.25;;;;;;;11.27;66.26;98217.84;4187993;28;20062;-71
2022/05/30 09:08:32;;;;;;;7.93;3.47;;;;;;;11.22;66.77;98226.50;4186568;28;20045;-71
2022/05/30 09:10:55;;;;;;;5.15;2.20;;;;;;;11.27;67.61;98219.81;4187907;28;20098;-71
2022/05/30 09:13:21;;;;;;;4.28;2.42;;;;;;;11.23;67.92;98225.31;4187494;28;20350;-71
2022/05/30 09:15:35;;;;;;;5.53;2.28;;;;;;;11.31;66.95;98220.63;4187436;28;20036;-71
2022/05/30 09:17:42;;;;;;;3.58;1.95;;;;;;;11.37;66.12;98219.88;4187808;28;20036;-71
2022/05/30 09:19:43;;;;;;;7.13;4.25;;;;;;;11.40;67.35;98221.03;4186887;28;20438;-71
2022/05/30 09:21:43;;;;;;;5.55;2.65;;;;;;;11.50;66.31;98229.41;4186884;28;20105;-71
2022/05/30 09:23:44;;;;;;;5.55;2.17;;;;;;;11.49;66.48;98222.28;4187062;28;20052;-71
2022/05/30 09:25:56;;;;;;;2.47;1.95;;;;;;;11.66;66.06;98223.50;4187651;28;20193;-71
2022/05/30 09:27:57;;;;;;;3.22;2.05;;;;;;;11.74;65.37;98227.09;4187001;28;20047;-71
2022/05/30 09:30:00;;;;;;;3.63;2.17;;;;;;;11.82;62.78;98226.75;4190428;28;20207;-71
2022/05/30 09:32:19;;;;;;;6.22;2.08;;;;;;;11.70;62.24;98218.78;4198375;27;20484;-71
2022/05/30 09:34:45;;;;;;;3.97;1.90;;;;;;;11.57;63.09;98233.38;4186756;28;20072;-71
2022/05/30 09:36:49;;;;;;;4.78;1.98;;;;;;;11.74;64.18;98225.13;4191567;28;20090;-71
2022/05/30 09:38:59;;;;;;;4.85;2.17;;;;;;;11.80;63.72;98228.34;4185640;28;20139;-71
2022/05/30 09:41:06;;;;;;;2.53;1.88;;;;;;;11.90;62.83;98224.00;4186134;28;20051;-71
2022/05/30 09:43:07;;;;;;;5.20;2.13;;;;;;;11.97;62.10;98227.59;4192935;28;20515;-71
2022/05/30 09:45:15;;;;;;;4.57;2.05;;;;;;;11.90;62.29;98219.25;4194327;27;20040;-71
2022/05/30 09:47:18;;;;;;;4.68;2.38;;;;;;;12.06;62.24;98221.66;4186313;28;20090;-71
2022/05/30 09:49:24;;;;;;;2.97;1.70;;;;;;;12.14;60.76;98230.78;4186518;28;20451;-72
2022/05/30 09:51:42;;;;;;;2.85;1.88;;;;;;;12.09;61.07;98224.44;4186379;28;20516;-71
2022/05/30 09:53:47;;;;;;;4.53;2.15;;;;;;;11.94;60.76;98222.84;4185946;28;20127;-71